Latest Coastal Weather Observations for Tewantin

IDQ60701

Issued at 3:42 pm EST Wednesday 20 September 2017 (issued every 10 minutes, with the page automatically refreshed every 10 minutes)

About coastal observations | Map of coastal stations | Coastal observations for QLD | Marine services | Other Formats
Station Details ID: 040908 Name: TEWANTIN RSL PARK Lat: -26.39 Lon: 153.04 Height: 6.4 m
Data from the previous 72 hours. | See also: Recent months at Tewantin
Date/Time
EST
Temp
°C
Wind Pressure Rain since
9am
mm
Weather Cloud Vis
km
Sea
Height
m
Swell
Dir  Spd
kts
Gust
kts
hPa Trend Height
m
Period
s
Dir
20/03:30pm 21.7 ESE 9 13 1015.8 - 0.0 - - - - - - -
20/03:00pm 22.2 ESE 9 15 1015.6 - 0.0 - - - - - - -
20/02:30pm 22.5 ESE 9 15 1015.7 - 0.0 - - - - - - -
20/02:00pm 23.1 ESE 8 13 1015.9 - 0.0 - - - - - - -
20/01:30pm 22.9 ESE 10 15 1016.3 - 0.0 - - - - - - -
20/01:00pm 22.7 ESE 11 15 1016.9 - 0.0 - - - - - - -
20/12:30pm 23.2 ESE 10 14 1017.3 - 0.0 - - - - - - -
20/12:00pm 22.8 SE 11 15 1017.8 - 0.0 - - - - - - -
20/11:30am 23.4 SE 8 15 1018.3 - 0.0 - - - - - - -
20/11:00am 23.1 SE 7 13 1018.9 - 0.0 - - - - - - -
20/10:30am 23.1 SE 7 12 1019.2 - 0.0 - - - - - - -
20/10:00am 23.0 SSE 8 15 1019.4 - 0.0 - - - - - - -
20/09:30am 22.5 SSE 8 13 1019.6 - 0.0 - - - - - - -
20/09:00am 21.9 SSE 7 15 1019.5 - 0.0 - - - - - - -
20/08:30am 22.0 SSE 7 13 1019.6 - 0.0 - - - - - - -
20/08:00am 21.2 S 7 10 1019.3 - 0.0 - - - - - - -
20/07:30am 20.5 S 8 12 1018.9 - 0.0 - - - - - - -
20/07:00am 19.4 S 4 7 1018.5 - 0.0 - - - - - - -
20/06:30am 17.1 CALM 0 3 1017.9 - 0.0 - - - - - - -
20/06:00am 17.6 W 2 5 1017.8 - 0.0 - - - - - - -
20/05:30am 17.5 N 5 8 1016.6 - 0.0 - - - - - - -
20/05:00am 17.7 NNW 5 8 1016.2 - 0.0 - - - - - - -
20/04:30am 17.6 N 2 5 1016.1 - 0.0 - - - - - - -
20/04:00am 18.0 NW 4 7 1015.8 - 0.0 - - - - - - -
20/03:30am 18.2 NW 4 7 1015.8 - 0.0 - - - - - - -
20/03:00am 18.6 NW 5 7 1016.0 - 0.0 - - - - - - -
20/02:30am 19.0 NW 5 8 1016.2 - 0.0 - - - - - - -
20/02:00am 19.0 NW 4 9 1016.8 - 0.0 - - - - - - -
20/01:30am 18.4 WNW 3 5 1017.0 - 0.0 - - - - - - -
20/01:00am 18.8 NW 4 7 1016.9 - 0.0 - - - - - - -
20/12:30am 19.1 NNW 5 8 1016.7 - 0.0 - - - - - - -
20/12:00am 19.3 NNW 4 6 1016.7 - 0.0 - - - - - - -
 
Date/Time
EST
Temp
°C
Wind Pressure Rain since
9am
mm
Weather Cloud Vis
km
Sea
Height
m
Swell
Dir  Spd
kts
Gust
kts
hPa Trend Height
m
Period
s
Dir
19/11:30pm 19.6 NNW 6 9 1017.0 - 0.0 - - - - - - -
19/11:00pm 19.9 NNW 6 10 1017.2 - 0.0 - - - - - - -
19/10:30pm 20.2 NNW 7 10 1017.7 - 0.0 - - - - - - -
19/10:00pm 20.5 NNW 7 11 1018.1 - 0.0 - - - - - - -
19/09:30pm 20.6 NNW 7 10 1018.2 - 0.0 - - - - - - -
19/09:00pm 20.8 NNW 8 11 1018.5 - 0.0 - - - - - - -
19/08:30pm 21.0 NNW 7 12 1018.0 - 0.0 - - - - - - -
19/08:00pm 21.2 NNW 7 12 1018.3 - 0.0 - - - - - - -
19/07:30pm 21.3 NNW 8 12 1018.2 - 0.0 - - - - - - -
19/07:00pm 21.5 N 9 14 1018.1 - 0.0 - - - - - - -
19/06:30pm 21.7 N 9 13 1017.4 - 0.0 - - - - - - -
19/06:00pm 21.8 N 8 13 1017.2 - 0.0 - - - - - - -
19/05:30pm 22.3 N 8 12 1017.5 - 0.0 - - - - - - -
19/05:00pm 22.1 N 11 14 1017.5 - 0.0 - - - - - - -
19/04:30pm 22.3 NNE 12 16 1016.8 - 0.0 - - - - - - -
19/04:00pm 22.5 NNE 15 23 1016.9 - 0.0 - - - - - - -
19/03:30pm 22.9 NNE 15 20 1016.2 - 0.0 - - - - - - -
19/03:00pm 23.2 NNE 13 19 1016.7 - 0.0 - - - - - - -
19/02:30pm 23.4 NNE 12 18 1017.0 - 0.0 - - - - - - -
19/02:00pm 23.5 NNE 14 20 1017.4 - 0.0 - - - - - - -
19/01:30pm 24.0 NNE 11 18 1018.1 - 0.0 - - - - - - -
19/01:00pm 24.1 NE 9 13 1018.7 - 0.0 - - - - - - -
19/12:30pm 24.4 NE 8 11 1019.3 - 0.0 - - - - - - -
19/12:00pm 23.8 NE 9 13 1019.9 - 0.0 - - - - - - -
19/11:30am 24.6 NE 8 13 1020.5 - 0.0 - - - - - - -
19/11:00am 25.3 N 8 12 1021.1 - 0.0 - - - - - - -
19/10:30am 24.7 N 9 13 1021.5 - 0.0 - - - - - - -
19/10:00am 23.4 NW 6 10 1022.0 - 0.0 - - - - - - -
19/09:30am 23.2 NNW 5 8 1022.4 - 0.0 - - - - - - -
19/09:00am 21.8 WNW 6 9 1022.6 - 0.0 - - - - - - -
19/08:30am 20.6 NW 4 8 1022.8 - 0.0 - - - - - - -
19/08:00am 19.0 WNW 4 6 1023.0 - 0.0 - - - - - - -
19/07:30am 16.4 NNW 5 6 1022.8 - 0.0 - - - - - - -
19/07:00am 14.8 WNW 5 7 1022.7 - 0.0 - - - - - - -
19/06:30am 13.4 NW 5 6 1022.4 - 0.0 - - - - - - -
19/06:00am 12.3 NW 3 5 1022.3 - 0.0 - - - - - - -
19/05:30am 12.2 NW 3 4 1022.2 - 0.0 - - - - - - -
19/05:00am 12.2 CALM 0 0 1022.1 - 0.0 - - - - - - -
19/04:30am 12.3 CALM 0 0 1021.9 - 0.0 - - - - - - -
19/04:00am 12.4 CALM 0 0 1021.8 - 0.0 - - - - - - -
19/03:30am 12.4 CALM 0 0 1021.9 - 0.0 - - - - - - -
19/03:00am 12.5 CALM 0 0 1022.2 - 0.0 - - - - - - -
19/02:30am 13.0 CALM 0 0 1022.5 - 0.0 - - - - - - -
19/02:00am 12.7 CALM 0 0 1022.8 - 0.0 - - - - - - -
19/01:30am 12.9 CALM 0 0 1023.2 - 0.0 - - - - - - -
19/01:00am 13.2 CALM 0 0 1023.3 - 0.0 - - - - - - -
19/12:30am 13.2 CALM 0 0 1023.5 - 0.0 - - - - - - -
19/12:00am 13.4 CALM 0 0 1023.9 - 0.0 - - - - - - -
 
Date/Time
EST
Temp
°C
Wind Pressure Rain since
9am
mm
Weather Cloud Vis
km
Sea
Height
m
Swell
Dir  Spd
kts
Gust
kts
hPa Trend Height
m
Period
s
Dir
18/11:30pm 13.9 CALM 0 0 1024.0 - 0.0 - - - - - - -
18/11:00pm 14.1 CALM 0 0 1024.0 - 0.0 - - - - - - -
18/10:30pm 14.4 CALM 0 0 1024.2 - 0.0 - - - - - - -
18/10:00pm 14.8 CALM 0 0 1024.3 - 0.0 - - - - - - -
18/09:30pm 15.0 CALM 0 0 1024.6 - 0.0 - - - - - - -
18/09:00pm 16.1 CALM 0 0 1024.4 - 0.0 - - - - - - -
18/08:30pm 16.9 CALM 0 0 1024.4 - 0.0 - - - - - - -
18/08:00pm 17.3 CALM 0 0 1024.2 - 0.0 - - - - - - -
18/07:30pm 17.7 CALM 0 3 1024.1 - 0.0 - - - - - - -
18/07:00pm 17.7 NE 3 5 1023.9 - 0.0 - - - - - - -
18/06:30pm 18.2 NNE 4 5 1023.9 - 0.0 - - - - - - -
18/06:00pm 18.6 NE 3 4 1023.6 - 0.0 - - - - - - -
18/05:30pm 19.5 NE 5 6 1023.5 - 0.0 - - - - - - -
18/05:00pm 20.2 NE 6 9 1023.4 - 0.0 - - - - - - -
18/04:30pm 20.6 NE 6 9 1023.2 - 0.0 - - - - - - -
18/04:00pm 21.2 NE 7 12 1023.1 - 0.0 - - - - - - -
18/03:30pm 21.5 NE 9 13 1023.0 - 0.0 - - - - - - -
18/03:00pm 21.5 NE 7 13 1023.1 - 0.0 - - - - - - -
18/02:30pm 22.2 NNE 7 11 1023.3 - 0.0 - - - - - - -
18/02:00pm 21.9 ENE 8 13 1023.7 - 0.0 - - - - - - -
18/01:30pm 23.1 NE 7 11 1024.0 - 0.0 - - - - - - -
18/01:00pm 22.9 NE 8 12 1024.3 - 0.0 - - - - - - -
18/12:30pm 22.1 ENE 7 12 1024.9 - 0.0 - - - - - - -
18/12:00pm 22.0 E 8 13 1025.4 - 0.0 - - - - - - -
18/11:30am 22.3 ESE 8 12 1025.8 - 0.0 - - - - - - -
18/11:00am 22.1 E 8 12 1026.3 - 0.0 - - - - - - -
18/10:30am 21.4 ESE 8 12 1026.8 - 0.0 - - - - - - -
18/10:00am 21.5 ESE 9 13 1027.0 - 0.0 - - - - - - -
18/09:30am 21.5 ESE 9 14 1027.4 - 0.0 - - - - - - -
18/09:00am 21.4 ESE 8 13 1027.4 - 0.0 - - - - - - -
18/08:30am 20.7 ESE 9 13 1027.4 - 0.0 - - - - - - -
18/08:00am 20.0 ESE 8 12 1027.1 - 0.0 - - - - - - -
18/07:30am 20.6 ESE 7 11 1026.9 - 0.0 - - - - - - -
18/07:00am 20.7 ESE 6 9 1026.5 - 0.0 - - - - - - -
18/06:30am 19.4 SE 4 6 1026.1 - 0.0 - - - - - - -
18/06:00am 19.2 SE 5 8 1025.9 - 0.0 - - - - - - -
18/05:30am 19.4 ESE 5 8 1025.6 - 0.0 - - - - - - -
18/05:00am 19.1 ESE 5 7 1025.4 - 0.0 - - - - - - -
18/04:30am 19.1 SE 5 9 1025.1 - 0.0 - - - - - - -
18/04:00am 19.2 ESE 5 7 1024.9 - 0.0 - - - - - - -
18/03:30am 19.1 ESE 6 9 1024.5 - 0.0 - - - - - - -
18/03:00am 19.4 ESE 5 8 1024.5 - 0.0 - - - - - - -
18/02:30am 19.2 ESE 4 6 1024.5 - 0.0 - - - - - - -
18/02:00am 19.2 E 4 6 1024.7 - 0.0 - - - - - - -
18/01:30am 19.2 ESE 4 6 1024.9 - 0.0 - - - - - - -
18/01:00am 19.1 SSE 3 4 1025.1 - 0.0 - - - - - - -
18/12:30am 19.4 ESE 5 8 1025.3 - 0.0 - - - - - - -
18/12:00am 19.4 SE 7 10 1025.5 - 0.0 - - - - - - -
 
Date/Time
EST
Temp
°C
Wind Pressure Rain since
9am
mm
Weather Cloud Vis
km
Sea
Height
m
Swell
Dir  Spd
kts
Gust
kts
hPa Trend Height
m
Period
s
Dir
17/11:30pm 19.3 SE 6 9 1025.7 - 0.0 - - - - - - -
17/11:00pm 19.2 ESE 6 9 1025.8 - 0.0 - - - - - - -
17/10:30pm 19.6 ESE 7 11 1026.0 - 0.0 - - - - - - -
17/10:00pm 19.6 ESE 7 10 1025.9 - 0.0 - - - - - - -
17/09:30pm 19.8 SE 7 11 1025.9 - 0.0 - - - - - - -
17/09:00pm 19.8 ESE 6 9 1025.8 - 0.0 - - - - - - -
17/08:30pm 19.5 ESE 6 10 1025.6 - 0.0 - - - - - - -
17/08:00pm 19.7 SE 7 11 1025.4 - 0.0 - - - - - - -
17/07:30pm 19.8 ESE 7 11 1025.3 - 0.0 - - - - - - -
17/07:00pm 20.0 SE 7 12 1025.1 - 0.0 - - - - - - -
17/06:30pm 20.0 ESE 9 15 1024.7 - 0.0 - - - - - - -
17/06:00pm 20.0 SE 8 15 1024.3 - 0.0 - - - - - - -
17/05:30pm 20.0 SE 9 13 1024.0 - 0.0 - - - - - - -
17/05:00pm 20.3 SE 9 13 1023.7 - 0.0 - - - - - - -
17/04:30pm 20.6 ESE 9 14 1023.3 - 0.0 - - - - - - -
17/04:00pm 21.0 ESE 10 16 1023.0 - 0.0 - - - - - - -

Other Formats:

Comma delimited format used in spreadsheet applications
http://www.bom.gov.au/fwo/IDQ60701/IDQ60701.94570.axf

JavaScript Object Notation format (JSON) in row-major order
http://www.bom.gov.au/fwo/IDQ60701/IDQ60701.94570.json